sensor_id;sensor_type;location;lat;lon;timestamp;temperature;humidity
13310;DHT22;6723;48.256;16.402;2023-02-18T00:00:18;13.80;99.90
13310;DHT22;6723;48.256;16.402;2023-02-18T00:02:45;13.80;99.90
13310;DHT22;6723;48.256;16.402;2023-02-18T00:05:12;13.80;99.90
13310;DHT22;6723;48.256;16.402;2023-02-18T00:07:39;13.80;99.90
13310;DHT22;6723;48.256;16.402;2023-02-18T00:10:10;13.80;99.90
13310;DHT22;6723;48.256;16.402;2023-02-18T00:12:36;13.80;99.90
13310;DHT22;6723;48.256;16.402;2023-02-18T00:15:02;13.80;99.90
13310;DHT22;6723;48.256;16.402;2023-02-18T00:17:28;13.90;99.90
13310;DHT22;6723;48.256;16.402;2023-02-18T00:19:54;13.90;99.90
13310;DHT22;6723;48.256;16.402;2023-02-18T00:22:22;13.90;99.90
13310;DHT22;6723;48.256;16.402;2023-02-18T00:24:51;13.80;99.90
13310;DHT22;6723;48.256;16.402;2023-02-18T00:27:17;13.90;99.90
13310;DHT22;6723;48.256;16.402;2023-02-18T00:29:43;13.90;99.90
13310;DHT22;6723;48.256;16.402;2023-02-18T00:32:09;13.90;99.90
13310;DHT22;6723;48.256;16.402;2023-02-18T00:34:35;13.90;99.90
13310;DHT22;6723;48.256;16.402;2023-02-18T00:37:01;13.90;99.90
13310;DHT22;6723;48.256;16.402;2023-02-18T00:39:27;13.90;99.90
13310;DHT22;6723;48.256;16.402;2023-02-18T00:41:52;13.90;99.90
13310;DHT22;6723;48.256;16.402;2023-02-18T00:44:18;13.90;99.90
13310;DHT22;6723;48.256;16.402;2023-02-18T00:46:44;13.90;99.90
13310;DHT22;6723;48.256;16.402;2023-02-18T00:49:12;13.90;99.90
13310;DHT22;6723;48.256;16.402;2023-02-18T00:51:38;13.90;99.90
13310;DHT22;6723;48.256;16.402;2023-02-18T00:54:04;13.90;99.90
13310;DHT22;6723;48.256;16.402;2023-02-18T00:56:30;14.00;99.90
13310;DHT22;6723;48.256;16.402;2023-02-18T00:58:56;13.90;99.90
13310;DHT22;6723;48.256;16.402;2023-02-18T01:01:22;13.90;99.90
13310;DHT22;6723;48.256;16.402;2023-02-18T01:03:48;13.90;99.90
13310;DHT22;6723;48.256;16.402;2023-02-18T01:06:15;13.90;99.90
13310;DHT22;6723;48.256;16.402;2023-02-18T01:08:41;13.90;99.90
13310;DHT22;6723;48.256;16.402;2023-02-18T01:11:09;13.90;99.90
13310;DHT22;6723;48.256;16.402;2023-02-18T01:13:36;13.80;99.90
13310;DHT22;6723;48.256;16.402;2023-02-18T01:16:03;13.80;99.90
13310;DHT22;6723;48.256;16.402;2023-02-18T01:18:29;13.90;99.90
13310;DHT22;6723;48.256;16.402;2023-02-18T01:20:55;13.80;99.90
13310;DHT22;6723;48.256;16.402;2023-02-18T01:23:22;13.80;99.90
13310;DHT22;6723;48.256;16.402;2023-02-18T01:25:48;13.80;99.90
13310;DHT22;6723;48.256;16.402;2023-02-18T01:28:14;13.80;99.90
13310;DHT22;6723;48.256;16.402;2023-02-18T01:30:41;13.80;99.90
13310;DHT22;6723;48.256;16.402;2023-02-18T01:33:08;13.80;99.90
13310;DHT22;6723;48.256;16.402;2023-02-18T01:35:37;13.90;99.90
13310;DHT22;6723;48.256;16.402;2023-02-18T01:38:04;13.90;99.90
13310;DHT22;6723;48.256;16.402;2023-02-18T01:40:29;13.90;99.90
13310;DHT22;6723;48.256;16.402;2023-02-18T01:42:56;13.90;99.90
13310;DHT22;6723;48.256;16.402;2023-02-18T01:54:00;13.80;99.90
13310;DHT22;6723;48.256;16.402;2023-02-18T01:56:47;13.80;99.90
13310;DHT22;6723;48.256;16.402;2023-02-18T01:59:22;13.80;99.90
13310;DHT22;6723;48.256;16.402;2023-02-18T02:01:49;13.80;99.90
13310;DHT22;6723;48.256;16.402;2023-02-18T02:04:16;13.80;99.90
13310;DHT22;6723;48.256;16.402;2023-02-18T02:06:42;13.80;99.90
13310;DHT22;6723;48.256;16.402;2023-02-18T02:09:10;13.90;99.90
13310;DHT22;6723;48.256;16.402;2023-02-18T02:44:24;13.90;99.90
13310;DHT22;6723;48.256;16.402;2023-02-18T02:46:59;13.90;99.90
13310;DHT22;6723;48.256;16.402;2023-02-18T02:51:59;13.90;99.90
13310;DHT22;6723;48.256;16.402;2023-02-18T02:54:28;14.00;99.90
13310;DHT22;6723;48.256;16.402;2023-02-18T02:59:57;13.90;99.90
13310;DHT22;6723;48.256;16.402;2023-02-18T03:08:42;13.90;99.90
13310;DHT22;6723;48.256;16.402;2023-02-18T03:11:13;13.90;99.90
13310;DHT22;6723;48.256;16.402;2023-02-18T03:16:38;13.90;99.90
13310;DHT22;6723;48.256;16.402;2023-02-18T03:19:23;13.90;99.90
13310;DHT22;6723;48.256;16.402;2023-02-18T03:26:57;13.90;99.90
13310;DHT22;6723;48.256;16.402;2023-02-18T03:29:24;13.80;99.90
13310;DHT22;6723;48.256;16.402;2023-02-18T03:31:54;13.80;99.90
13310;DHT22;6723;48.256;16.402;2023-02-18T03:34:29;13.80;99.90
13310;DHT22;6723;48.256;16.402;2023-02-18T03:36:57;13.80;99.90
13310;DHT22;6723;48.256;16.402;2023-02-18T03:39:29;13.80;99.90
13310;DHT22;6723;48.256;16.402;2023-02-18T03:41:56;13.70;99.90
13310;DHT22;6723;48.256;16.402;2023-02-18T03:44:24;13.70;99.90
13310;DHT22;6723;48.256;16.402;2023-02-18T03:46:50;13.60;99.90
13310;DHT22;6723;48.256;16.402;2023-02-18T03:49:16;13.60;99.90
13310;DHT22;6723;48.256;16.402;2023-02-18T03:51:42;13.60;99.90
13310;DHT22;6723;48.256;16.402;2023-02-18T03:54:08;13.50;99.90
13310;DHT22;6723;48.256;16.402;2023-02-18T03:56:35;13.40;99.90
13310;DHT22;6723;48.256;16.402;2023-02-18T03:59:01;13.40;99.90
13310;DHT22;6723;48.256;16.402;2023-02-18T04:01:27;13.40;99.90
13310;DHT22;6723;48.256;16.402;2023-02-18T04:03:53;13.30;99.90
13310;DHT22;6723;48.256;16.402;2023-02-18T04:06:21;13.30;99.90
13310;DHT22;6723;48.256;16.402;2023-02-18T04:08:47;13.30;99.90
13310;DHT22;6723;48.256;16.402;2023-02-18T04:11:13;13.30;99.90
13310;DHT22;6723;48.256;16.402;2023-02-18T04:13:39;13.20;99.90
13310;DHT22;6723;48.256;16.402;2023-02-18T04:16:05;13.20;99.90
13310;DHT22;6723;48.256;16.402;2023-02-18T04:18:31;13.10;99.90
13310;DHT22;6723;48.256;16.402;2023-02-18T04:20:57;13.10;99.90
13310;DHT22;6723;48.256;16.402;2023-02-18T04:23:23;13.20;99.90
13310;DHT22;6723;48.256;16.402;2023-02-18T04:25:50;13.20;99.90
13310;DHT22;6723;48.256;16.402;2023-02-18T04:28:16;13.30;99.90
13310;DHT22;6723;48.256;16.402;2023-02-18T04:30:43;13.20;99.90
13310;DHT22;6723;48.256;16.402;2023-02-18T04:33:10;13.20;99.90
13310;DHT22;6723;48.256;16.402;2023-02-18T04:35:35;13.20;99.90
13310;DHT22;6723;48.256;16.402;2023-02-18T04:38:02;13.20;99.90
13310;DHT22;6723;48.256;16.402;2023-02-18T04:40:28;13.20;99.90
13310;DHT22;6723;48.256;16.402;2023-02-18T04:42:59;13.30;99.90
13310;DHT22;6723;48.256;16.402;2023-02-18T04:45:25;13.50;99.90
13310;DHT22;6723;48.256;16.402;2023-02-18T04:47:52;13.40;99.90
13310;DHT22;6723;48.256;16.402;2023-02-18T04:50:19;13.40;99.90
13310;DHT22;6723;48.256;16.402;2023-02-18T04:52:45;13.30;99.90
13310;DHT22;6723;48.256;16.402;2023-02-18T04:55:11;13.40;99.90
13310;DHT22;6723;48.256;16.402;2023-02-18T04:57:37;13.40;99.90
13310;DHT22;6723;48.256;16.402;2023-02-18T05:00:05;13.50;99.90
13310;DHT22;6723;48.256;16.402;2023-02-18T05:02:32;13.50;99.90
13310;DHT22;6723;48.256;16.402;2023-02-18T05:04:58;13.50;99.90
13310;DHT22;6723;48.256;16.402;2023-02-18T05:07:24;13.50;99.90
13310;DHT22;6723;48.256;16.402;2023-02-18T05:09:50;13.50;99.90
13310;DHT22;6723;48.256;16.402;2023-02-18T05:12:16;13.40;99.90
13310;DHT22;6723;48.256;16.402;2023-02-18T05:14:42;13.50;99.90
13310;DHT22;6723;48.256;16.402;2023-02-18T05:17:07;13.40;99.90
13310;DHT22;6723;48.256;16.402;2023-02-18T05:19:33;13.40;99.90
13310;DHT22;6723;48.256;16.402;2023-02-18T05:21:59;13.40;99.90
13310;DHT22;6723;48.256;16.402;2023-02-18T05:24:25;13.40;99.90
13310;DHT22;6723;48.256;16.402;2023-02-18T05:26:51;13.40;99.90
13310;DHT22;6723;48.256;16.402;2023-02-18T05:29:16;13.40;99.90
13310;DHT22;6723;48.256;16.402;2023-02-18T05:31:42;13.40;99.90
13310;DHT22;6723;48.256;16.402;2023-02-18T05:34:08;13.40;99.90
13310;DHT22;6723;48.256;16.402;2023-02-18T05:36:34;13.30;99.90
13310;DHT22;6723;48.256;16.402;2023-02-18T05:39:00;13.40;99.90
13310;DHT22;6723;48.256;16.402;2023-02-18T05:41:25;13.50;99.90
13310;DHT22;6723;48.256;16.402;2023-02-18T05:43:51;13.50;99.90
13310;DHT22;6723;48.256;16.402;2023-02-18T05:46:35;13.40;99.90
13310;DHT22;6723;48.256;16.402;2023-02-18T05:49:01;13.40;99.90
13310;DHT22;6723;48.256;16.402;2023-02-18T05:51:27;13.40;99.90
13310;DHT22;6723;48.256;16.402;2023-02-18T05:53:53;13.40;99.90
13310;DHT22;6723;48.256;16.402;2023-02-18T05:56:22;13.40;99.90
13310;DHT22;6723;48.256;16.402;2023-02-18T05:58:48;13.30;99.90
13310;DHT22;6723;48.256;16.402;2023-02-18T06:01:13;13.30;99.90
13310;DHT22;6723;48.256;16.402;2023-02-18T06:03:39;13.30;99.90
13310;DHT22;6723;48.256;16.402;2023-02-18T06:06:05;13.30;99.90
13310;DHT22;6723;48.256;16.402;2023-02-18T06:08:31;13.30;99.90
13310;DHT22;6723;48.256;16.402;2023-02-18T06:11:02;13.30;99.90
13310;DHT22;6723;48.256;16.402;2023-02-18T06:13:28;13.30;99.90
13310;DHT22;6723;48.256;16.402;2023-02-18T06:15:53;13.30;99.90
13310;DHT22;6723;48.256;16.402;2023-02-18T06:18:20;13.30;99.90
13310;DHT22;6723;48.256;16.402;2023-02-18T06:20:47;13.20;99.90
13310;DHT22;6723;48.256;16.402;2023-02-18T06:23:14;13.40;99.90
13310;DHT22;6723;48.256;16.402;2023-02-18T06:25:40;13.40;99.90
13310;DHT22;6723;48.256;16.402;2023-02-18T06:28:07;13.40;99.90
13310;DHT22;6723;48.256;16.402;2023-02-18T06:30:32;13.40;99.90
13310;DHT22;6723;48.256;16.402;2023-02-18T06:32:58;13.40;99.90
13310;DHT22;6723;48.256;16.402;2023-02-18T06:35:24;13.40;99.90
13310;DHT22;6723;48.256;16.402;2023-02-18T06:37:52;13.40;99.90
13310;DHT22;6723;48.256;16.402;2023-02-18T06:40:18;13.40;99.90
13310;DHT22;6723;48.256;16.402;2023-02-18T06:42:43;13.40;99.90
13310;DHT22;6723;48.256;16.402;2023-02-18T06:45:14;13.50;99.90
13310;DHT22;6723;48.256;16.402;2023-02-18T06:47:40;13.50;99.90
13310;DHT22;6723;48.256;16.402;2023-02-18T06:50:06;13.60;99.90
13310;DHT22;6723;48.256;16.402;2023-02-18T06:52:32;13.50;99.90
13310;DHT22;6723;48.256;16.402;2023-02-18T06:55:01;13.60;99.90
13310;DHT22;6723;48.256;16.402;2023-02-18T06:57:26;13.50;99.90
13310;DHT22;6723;48.256;16.402;2023-02-18T06:59:52;13.50;99.90
13310;DHT22;6723;48.256;16.402;2023-02-18T07:02:18;13.50;99.90
13310;DHT22;6723;48.256;16.402;2023-02-18T07:04:43;13.60;99.90
13310;DHT22;6723;48.256;16.402;2023-02-18T07:07:10;13.60;99.90
13310;DHT22;6723;48.256;16.402;2023-02-18T07:09:36;13.60;99.90
13310;DHT22;6723;48.256;16.402;2023-02-18T07:12:02;13.60;99.90
13310;DHT22;6723;48.256;16.402;2023-02-18T07:14:28;13.70;99.90
13310;DHT22;6723;48.256;16.402;2023-02-18T07:16:54;13.70;99.90
13310;DHT22;6723;48.256;16.402;2023-02-18T07:19:20;13.80;99.90
13310;DHT22;6723;48.256;16.402;2023-02-18T07:21:45;13.80;99.90
13310;DHT22;6723;48.256;16.402;2023-02-18T07:24:11;13.80;99.90
13310;DHT22;6723;48.256;16.402;2023-02-18T07:26:37;13.90;99.90
13310;DHT22;6723;48.256;16.402;2023-02-18T07:29:03;13.90;99.90
13310;DHT22;6723;48.256;16.402;2023-02-18T07:31:29;13.90;99.90
13310;DHT22;6723;48.256;16.402;2023-02-18T07:33:54;14.00;99.90
13310;DHT22;6723;48.256;16.402;2023-02-18T07:36:20;14.00;99.90
13310;DHT22;6723;48.256;16.402;2023-02-18T07:39:01;14.00;99.90
13310;DHT22;6723;48.256;16.402;2023-02-18T07:41:27;13.90;99.90
13310;DHT22;6723;48.256;16.402;2023-02-18T07:43:53;14.00;99.90
13310;DHT22;6723;48.256;16.402;2023-02-18T07:46:19;14.00;99.90
13310;DHT22;6723;48.256;16.402;2023-02-18T07:48:44;14.00;99.90
13310;DHT22;6723;48.256;16.402;2023-02-18T07:51:11;14.10;99.90
13310;DHT22;6723;48.256;16.402;2023-02-18T07:53:38;14.00;99.90
13310;DHT22;6723;48.256;16.402;2023-02-18T07:56:05;14.00;99.90
13310;DHT22;6723;48.256;16.402;2023-02-18T07:58:34;14.00;99.90
13310;DHT22;6723;48.256;16.402;2023-02-18T08:01:05;14.10;99.90
13310;DHT22;6723;48.256;16.402;2023-02-18T08:03:31;14.20;99.90
13310;DHT22;6723;48.256;16.402;2023-02-18T08:06:00;14.20;99.90
13310;DHT22;6723;48.256;16.402;2023-02-18T08:08:28;14.30;99.90
13310;DHT22;6723;48.256;16.402;2023-02-18T08:10:59;14.30;99.90
13310;DHT22;6723;48.256;16.402;2023-02-18T08:13:29;14.30;99.90
13310;DHT22;6723;48.256;16.402;2023-02-18T08:18:54;14.20;99.90
13310;DHT22;6723;48.256;16.402;2023-02-18T08:21:22;14.20;99.90
13310;DHT22;6723;48.256;16.402;2023-02-18T08:23:49;14.30;99.90
13310;DHT22;6723;48.256;16.402;2023-02-18T08:26:15;14.30;99.90
13310;DHT22;6723;48.256;16.402;2023-02-18T08:28:42;14.30;99.90
13310;DHT22;6723;48.256;16.402;2023-02-18T08:31:16;14.50;99.90
13310;DHT22;6723;48.256;16.402;2023-02-18T08:33:43;14.50;99.90
13310;DHT22;6723;48.256;16.402;2023-02-18T08:36:09;14.60;99.90
13310;DHT22;6723;48.256;16.402;2023-02-18T08:38:35;14.50;99.90
13310;DHT22;6723;48.256;16.402;2023-02-18T08:41:03;14.70;99.90
13310;DHT22;6723;48.256;16.402;2023-02-18T08:43:32;14.60;99.90
13310;DHT22;6723;48.256;16.402;2023-02-18T08:45:58;14.50;99.90
13310;DHT22;6723;48.256;16.402;2023-02-18T08:48:25;14.50;99.90
13310;DHT22;6723;48.256;16.402;2023-02-18T08:50:51;14.60;99.90
13310;DHT22;6723;48.256;16.402;2023-02-18T08:53:17;14.60;99.90
13310;DHT22;6723;48.256;16.402;2023-02-18T08:55:44;14.60;99.90
13310;DHT22;6723;48.256;16.402;2023-02-18T08:58:10;14.60;99.90
13310;DHT22;6723;48.256;16.402;2023-02-18T09:00:38;14.70;99.90
13310;DHT22;6723;48.256;16.402;2023-02-18T09:03:05;14.70;99.90
13310;DHT22;6723;48.256;16.402;2023-02-18T09:05:30;14.70;99.90
13310;DHT22;6723;48.256;16.402;2023-02-18T09:07:56;14.80;99.90
13310;DHT22;6723;48.256;16.402;2023-02-18T09:10:22;14.80;99.90
13310;DHT22;6723;48.256;16.402;2023-02-18T09:13:03;14.80;99.90
13310;DHT22;6723;48.256;16.402;2023-02-18T09:15:29;14.90;99.90
13310;DHT22;6723;48.256;16.402;2023-02-18T09:17:56;14.90;99.90
13310;DHT22;6723;48.256;16.402;2023-02-18T09:20:22;15.00;99.90
13310;DHT22;6723;48.256;16.402;2023-02-18T09:22:48;15.10;99.90
13310;DHT22;6723;48.256;16.402;2023-02-18T09:25:13;15.10;99.90
13310;DHT22;6723;48.256;16.402;2023-02-18T09:27:39;14.90;99.90
13310;DHT22;6723;48.256;16.402;2023-02-18T09:30:05;14.90;99.90
13310;DHT22;6723;48.256;16.402;2023-02-18T09:32:31;14.90;99.90
13310;DHT22;6723;48.256;16.402;2023-02-18T09:34:57;15.00;99.90
13310;DHT22;6723;48.256;16.402;2023-02-18T09:37:23;14.90;99.90
13310;DHT22;6723;48.256;16.402;2023-02-18T09:39:48;14.90;99.90
13310;DHT22;6723;48.256;16.402;2023-02-18T09:42:17;15.00;99.90
13310;DHT22;6723;48.256;16.402;2023-02-18T09:44:50;15.10;99.90
13310;DHT22;6723;48.256;16.402;2023-02-18T09:47:34;15.00;99.90
13310;DHT22;6723;48.256;16.402;2023-02-18T09:52:35;15.00;99.90
13310;DHT22;6723;48.256;16.402;2023-02-18T09:55:30;15.00;99.90
13310;DHT22;6723;48.256;16.402;2023-02-18T09:58:01;15.00;99.90
13310;DHT22;6723;48.256;16.402;2023-02-18T10:00:50;15.00;99.90
13310;DHT22;6723;48.256;16.402;2023-02-18T10:03:22;14.90;99.90
13310;DHT22;6723;48.256;16.402;2023-02-18T10:06:52;14.80;99.90
13310;DHT22;6723;48.256;16.402;2023-02-18T10:09:02;14.80;99.90
13310;DHT22;6723;48.256;16.402;2023-02-18T10:11:40;14.90;99.90
13310;DHT22;6723;48.256;16.402;2023-02-18T10:14:13;15.00;99.90
13310;DHT22;6723;48.256;16.402;2023-02-18T10:16:44;14.90;99.90
13310;DHT22;6723;48.256;16.402;2023-02-18T10:19:21;14.90;99.90
13310;DHT22;6723;48.256;16.402;2023-02-18T10:21:49;15.00;99.90
13310;DHT22;6723;48.256;16.402;2023-02-18T10:24:21;14.80;99.90
13310;DHT22;6723;48.256;16.402;2023-02-18T10:26:50;14.80;99.90
13310;DHT22;6723;48.256;16.402;2023-02-18T10:29:18;14.80;99.90
13310;DHT22;6723;48.256;16.402;2023-02-18T10:31:56;14.80;99.90
13310;DHT22;6723;48.256;16.402;2023-02-18T10:34:29;14.80;99.90
13310;DHT22;6723;48.256;16.402;2023-02-18T10:37:00;14.80;99.90
13310;DHT22;6723;48.256;16.402;2023-02-18T10:39:50;14.80;99.90
13310;DHT22;6723;48.256;16.402;2023-02-18T10:42:27;14.80;99.90
13310;DHT22;6723;48.256;16.402;2023-02-18T10:47:41;14.90;99.90
13310;DHT22;6723;48.256;16.402;2023-02-18T10:52:51;15.10;99.90
13310;DHT22;6723;48.256;16.402;2023-02-18T10:55:37;15.20;99.90
13310;DHT22;6723;48.256;16.402;2023-02-18T11:00:51;15.30;99.90
13310;DHT22;6723;48.256;16.402;2023-02-18T11:03:21;15.50;99.90
13310;DHT22;6723;48.256;16.402;2023-02-18T11:05:51;15.40;99.90
13310;DHT22;6723;48.256;16.402;2023-02-18T11:08:29;15.20;99.90
13310;DHT22;6723;48.256;16.402;2023-02-18T11:11:10;15.20;99.90
13310;DHT22;6723;48.256;16.402;2023-02-18T11:13:40;15.30;99.90
13310;DHT22;6723;48.256;16.402;2023-02-18T11:16:06;15.30;99.90
13310;DHT22;6723;48.256;16.402;2023-02-18T11:18:42;15.50;99.90
13310;DHT22;6723;48.256;16.402;2023-02-18T11:21:28;15.40;99.90
13310;DHT22;6723;48.256;16.402;2023-02-18T11:23:56;15.20;99.90
13310;DHT22;6723;48.256;16.402;2023-02-18T11:26:41;15.40;99.90
13310;DHT22;6723;48.256;16.402;2023-02-18T11:29:21;15.30;99.90
13310;DHT22;6723;48.256;16.402;2023-02-18T11:31:51;15.40;99.90
13310;DHT22;6723;48.256;16.402;2023-02-18T11:34:25;15.50;99.90
13310;DHT22;6723;48.256;16.402;2023-02-18T11:36:55;15.70;99.90
13310;DHT22;6723;48.256;16.402;2023-02-18T11:39:32;15.80;99.90
13310;DHT22;6723;48.256;16.402;2023-02-18T11:55:29;16.00;99.90
13310;DHT22;6723;48.256;16.402;2023-02-18T11:58:03;16.10;99.90
13310;DHT22;6723;48.256;16.402;2023-02-18T12:00:37;16.40;99.90
13310;DHT22;6723;48.256;16.402;2023-02-18T12:05:49;16.40;99.90
13310;DHT22;6723;48.256;16.402;2023-02-18T12:08:27;16.70;99.90
13310;DHT22;6723;48.256;16.402;2023-02-18T12:11:26;16.70;99.80
13310;DHT22;6723;48.256;16.402;2023-02-18T12:13:56;16.70;99.80
13310;DHT22;6723;48.256;16.402;2023-02-18T12:19:09;17.40;98.70
13310;DHT22;6723;48.256;16.402;2023-02-18T12:24:51;16.90;98.50
13310;DHT22;6723;48.256;16.402;2023-02-18T12:30:31;17.60;97.10
13310;DHT22;6723;48.256;16.402;2023-02-18T12:33:04;18.20;96.60
13310;DHT22;6723;48.256;16.402;2023-02-18T12:38:52;18.90;95.10
13310;DHT22;6723;48.256;16.402;2023-02-18T12:43:57;19.10;94.60
13310;DHT22;6723;48.256;16.402;2023-02-18T12:49:22;20.20;93.50
13310;DHT22;6723;48.256;16.402;2023-02-18T13:08:53;18.00;94.90
13310;DHT22;6723;48.256;16.402;2023-02-18T13:14:08;18.10;94.70
13310;DHT22;6723;48.256;16.402;2023-02-18T13:16:37;17.70;95.00
13310;DHT22;6723;48.256;16.402;2023-02-18T13:19:15;17.80;95.10
13310;DHT22;6723;48.256;16.402;2023-02-18T13:21:44;17.80;94.90
13310;DHT22;6723;48.256;16.402;2023-02-18T13:24:16;18.20;94.90
13310;DHT22;6723;48.256;16.402;2023-02-18T13:26:48;18.30;94.50
13310;DHT22;6723;48.256;16.402;2023-02-18T13:29:34;18.20;93.90
13310;DHT22;6723;48.256;16.402;2023-02-18T13:37:22;18.10;93.50
13310;DHT22;6723;48.256;16.402;2023-02-18T13:39:56;18.10;93.50
13310;DHT22;6723;48.256;16.402;2023-02-18T13:42:23;18.20;93.30
13310;DHT22;6723;48.256;16.402;2023-02-18T13:47:48;18.30;93.00
13310;DHT22;6723;48.256;16.402;2023-02-18T13:53:28;18.50;92.80
13310;DHT22;6723;48.256;16.402;2023-02-18T13:56:04;18.20;92.50
13310;DHT22;6723;48.256;16.402;2023-02-18T14:04:00;18.20;92.80
13310;DHT22;6723;48.256;16.402;2023-02-18T14:06:33;18.10;92.40
13310;DHT22;6723;48.256;16.402;2023-02-18T14:11:57;18.30;92.40
13310;DHT22;6723;48.256;16.402;2023-02-18T14:14:40;18.30;92.30
13310;DHT22;6723;48.256;16.402;2023-02-18T14:17:36;18.40;92.10
13310;DHT22;6723;48.256;16.402;2023-02-18T14:22:32;18.10;92.30
13310;DHT22;6723;48.256;16.402;2023-02-18T14:27:34;18.00;92.50
13310;DHT22;6723;48.256;16.402;2023-02-18T14:30:04;17.90;92.40
13310;DHT22;6723;48.256;16.402;2023-02-18T14:32:32;17.90;92.80
13310;DHT22;6723;48.256;16.402;2023-02-18T14:38:09;17.90;92.50
13310;DHT22;6723;48.256;16.402;2023-02-18T14:43:44;17.80;92.50
13310;DHT22;6723;48.256;16.402;2023-02-18T14:49:30;17.70;92.50
13310;DHT22;6723;48.256;16.402;2023-02-18T14:51:58;17.60;92.40
13310;DHT22;6723;48.256;16.402;2023-02-18T14:54:25;17.50;92.40
13310;DHT22;6723;48.256;16.402;2023-02-18T14:57:08;17.50;92.60
13310;DHT22;6723;48.256;16.402;2023-02-18T14:59:40;17.50;92.60
13310;DHT22;6723;48.256;16.402;2023-02-18T15:02:23;17.50;92.60
13310;DHT22;6723;48.256;16.402;2023-02-18T15:04:52;17.50;92.60
13310;DHT22;6723;48.256;16.402;2023-02-18T15:07:21;17.40;92.50
13310;DHT22;6723;48.256;16.402;2023-02-18T15:09:52;17.40;92.80
13310;DHT22;6723;48.256;16.402;2023-02-18T15:12:21;17.30;92.80
13310;DHT22;6723;48.256;16.402;2023-02-18T15:14:51;17.20;92.80
13310;DHT22;6723;48.256;16.402;2023-02-18T15:17:23;17.10;93.00
13310;DHT22;6723;48.256;16.402;2023-02-18T15:19:54;17.10;93.10
13310;DHT22;6723;48.256;16.402;2023-02-18T15:22:30;17.10;93.10
13310;DHT22;6723;48.256;16.402;2023-02-18T15:24:58;17.00;93.20
13310;DHT22;6723;48.256;16.402;2023-02-18T15:27:29;16.90;93.30
13310;DHT22;6723;48.256;16.402;2023-02-18T15:32:51;16.90;93.40
13310;DHT22;6723;48.256;16.402;2023-02-18T15:35:19;16.80;93.50
13310;DHT22;6723;48.256;16.402;2023-02-18T15:37:53;16.70;93.50
13310;DHT22;6723;48.256;16.402;2023-02-18T15:40:21;16.70;93.50
13310;DHT22;6723;48.256;16.402;2023-02-18T15:42:50;16.60;93.70
13310;DHT22;6723;48.256;16.402;2023-02-18T15:45:38;16.60;93.80
13310;DHT22;6723;48.256;16.402;2023-02-18T15:48:04;16.50;93.80
13310;DHT22;6723;48.256;16.402;2023-02-18T15:50:47;16.40;94.00
13310;DHT22;6723;48.256;16.402;2023-02-18T15:53:15;16.40;93.90
13310;DHT22;6723;48.256;16.402;2023-02-18T15:55:46;16.30;94.00
13310;DHT22;6723;48.256;16.402;2023-02-18T15:58:28;16.20;94.00
13310;DHT22;6723;48.256;16.402;2023-02-18T16:01:00;16.20;94.10
13310;DHT22;6723;48.256;16.402;2023-02-18T16:03:31;16.20;94.20
13310;DHT22;6723;48.256;16.402;2023-02-18T16:06:24;16.00;94.20
13310;DHT22;6723;48.256;16.402;2023-02-18T16:09:03;16.00;94.40
13310;DHT22;6723;48.256;16.402;2023-02-18T16:11:37;15.90;94.40
13310;DHT22;6723;48.256;16.402;2023-02-18T16:14:05;15.90;94.50
13310;DHT22;6723;48.256;16.402;2023-02-18T16:16:35;15.80;94.50
13310;DHT22;6723;48.256;16.402;2023-02-18T16:19:02;15.70;94.70
13310;DHT22;6723;48.256;16.402;2023-02-18T16:21:32;15.60;94.70
13310;DHT22;6723;48.256;16.402;2023-02-18T16:24:19;15.50;94.90
13310;DHT22;6723;48.256;16.402;2023-02-18T16:26:49;15.40;94.80
13310;DHT22;6723;48.256;16.402;2023-02-18T16:29:38;15.30;94.80
13310;DHT22;6723;48.256;16.402;2023-02-18T16:32:04;15.30;94.90
13310;DHT22;6723;48.256;16.402;2023-02-18T16:34:30;15.30;94.80
13310;DHT22;6723;48.256;16.402;2023-02-18T16:36:56;15.20;94.90
13310;DHT22;6723;48.256;16.402;2023-02-18T16:39:41;15.20;94.80
13310;DHT22;6723;48.256;16.402;2023-02-18T16:42:11;15.20;94.90
13310;DHT22;6723;48.256;16.402;2023-02-18T16:44:38;15.20;95.00
13310;DHT22;6723;48.256;16.402;2023-02-18T16:47:04;15.20;95.00
13310;DHT22;6723;48.256;16.402;2023-02-18T16:49:31;15.10;95.10
13310;DHT22;6723;48.256;16.402;2023-02-18T16:51:59;15.20;95.10
13310;DHT22;6723;48.256;16.402;2023-02-18T16:54:27;15.20;95.20
13310;DHT22;6723;48.256;16.402;2023-02-18T16:56:53;15.20;95.20
13310;DHT22;6723;48.256;16.402;2023-02-18T16:59:19;15.10;95.20
13310;DHT22;6723;48.256;16.402;2023-02-18T17:01:45;15.10;95.30
13310;DHT22;6723;48.256;16.402;2023-02-18T17:04:16;15.10;95.40
13310;DHT22;6723;48.256;16.402;2023-02-18T17:06:46;15.00;95.40
13310;DHT22;6723;48.256;16.402;2023-02-18T17:09:20;15.00;95.40
13310;DHT22;6723;48.256;16.402;2023-02-18T17:11:51;15.00;95.30
13310;DHT22;6723;48.256;16.402;2023-02-18T17:14:19;15.10;95.40
13310;DHT22;6723;48.256;16.402;2023-02-18T17:16:47;15.10;95.40
13310;DHT22;6723;48.256;16.402;2023-02-18T17:19:14;15.10;95.40
13310;DHT22;6723;48.256;16.402;2023-02-18T17:21:41;15.10;95.40
13310;DHT22;6723;48.256;16.402;2023-02-18T17:24:12;15.00;95.30
13310;DHT22;6723;48.256;16.402;2023-02-18T17:26:38;15.10;95.40
13310;DHT22;6723;48.256;16.402;2023-02-18T17:29:07;15.10;95.20
13310;DHT22;6723;48.256;16.402;2023-02-18T17:31:36;15.10;95.20
13310;DHT22;6723;48.256;16.402;2023-02-18T17:34:07;15.10;95.20
13310;DHT22;6723;48.256;16.402;2023-02-18T17:36:37;15.00;95.10
13310;DHT22;6723;48.256;16.402;2023-02-18T17:39:12;15.10;94.90
13310;DHT22;6723;48.256;16.402;2023-02-18T17:41:50;15.10;94.80
13310;DHT22;6723;48.256;16.402;2023-02-18T17:44:19;15.20;94.50
13310;DHT22;6723;48.256;16.402;2023-02-18T17:46:45;15.20;94.50
13310;DHT22;6723;48.256;16.402;2023-02-18T17:49:11;15.20;94.50
13310;DHT22;6723;48.256;16.402;2023-02-18T17:51:38;15.10;94.40
13310;DHT22;6723;48.256;16.402;2023-02-18T17:54:17;15.20;94.40
13310;DHT22;6723;48.256;16.402;2023-02-18T17:56:46;15.10;94.40
13310;DHT22;6723;48.256;16.402;2023-02-18T17:59:12;15.10;94.40
13310;DHT22;6723;48.256;16.402;2023-02-18T18:01:38;15.10;94.30
13310;DHT22;6723;48.256;16.402;2023-02-18T18:04:10;15.20;94.30
13310;DHT22;6723;48.256;16.402;2023-02-18T18:06:37;15.20;94.30
13310;DHT22;6723;48.256;16.402;2023-02-18T18:09:18;15.20;94.30
13310;DHT22;6723;48.256;16.402;2023-02-18T18:11:44;15.20;94.30
13310;DHT22;6723;48.256;16.402;2023-02-18T18:14:22;15.20;94.40
13310;DHT22;6723;48.256;16.402;2023-02-18T18:16:51;15.20;94.40
13310;DHT22;6723;48.256;16.402;2023-02-18T18:19:16;15.20;94.40
13310;DHT22;6723;48.256;16.402;2023-02-18T18:21:43;15.20;94.40
13310;DHT22;6723;48.256;16.402;2023-02-18T18:24:11;15.10;94.50
13310;DHT22;6723;48.256;16.402;2023-02-18T18:26:37;15.00;94.60
13310;DHT22;6723;48.256;16.402;2023-02-18T18:29:03;15.00;94.70